Aérodrome :
LOGIN :

S'inscrire | Disclaimer

   EN    FR    IT 

 










Légende :    VFR   VFR Marginal   IFR   IFR Intensif   IFR Très Intensif
Visi : 
Plafond : 
>= 8 km
>= 3000ft
5 à 8 km
1000 à 3000 ft
1500m à 5 km
500 à 1000 ft
800 à 1500m
200 à 500 ft
< 800m
< 200 ft
Symboles :   Orages  Brouillard  Fortes neiges  Fortes précipitations  Vent > 20 kt
SIGMETs :   Divers  Orages  Givrage  Turbulence  Onde Orograph.  Cendres Volcan.







- Altitude de l'aérodrome : 188 ft
- Code IATA : ORB


ESOE - Örebro

DERNIER METAR :
  • 131520Z 17005KT 9999 -DZ SCT014 BKN021 08/08 Q1013

METARs EXPIRÉS :
  • 131450Z 17006KT 9999 FEW007 BKN013 09/09 Q1013
  • 131350Z 22007KT 9000 -RA OVC007 11/08 Q1013
  • 131320Z 21008KT 8000 BR OVC006 10/07 Q1013
  • 131250Z 22007KT 9999 BKN009 09/07 Q1013
  • 131220Z 22008KT 9999 BKN010 10/06 Q1013

TAF TAF ESOE
Valide du 13 à 15h jusqu'au 14 à 00h UTC


131430Z 1315/1324 22005KT 9000 BKN009
TEMPO 1315/1321 SHRA SCT015 BKN030CB
PROB40 1321/1324 2000 BR
Pas de NOTAMs connus pour ce terrain.



MET'MAP, la Météo Aéronautique d'un coup d'oeil ! - Copyright ORBIFLY Décembre 2007 - Disclaimer

ORBIFLY MET'MAP TEAM :

Programmation & Développement : Alexandra Zaïnal
Conception & Développement : Baudouin d'Aumeries
Co-Programmation & Développement : Marc-Olivier Méhu
Soutien technique & logistique : Manuel Goepfert

Contact : metmap@orbifly.com




SOURCES & CREDITS :

   NOAA